AYGN/GUR METAR and TAF weather

Enter ICAO airport designator
Station Type Date Time Source
AYGN METAR 2017/12/22 03:00 UTC NOAA

AYGN 220300Z 13008KT 9999 BKN025 31/24 Q1007 RMKS


Station Type Date Time Source
AYGN Decoded METAR 2017/12/22 03:00 UTC NOAA

Station name not available
Dec 21, 2017 - 10:00 PM EST / 2017.12.22 0300 UTC
Wind: from the SE (130 degrees) at 9 MPH (8 KT):0
Visibility: greater than 7 mile(s):0
Sky conditions: mostly cloudy
Temperature: 87 F (31 C)
Heat index: 95.7 F (35.4 C):1
Dew Point: 75 F (24 C)
Relative Humidity: 66%
Pressure (altimeter): 29.74 in. Hg (1007 hPa)
ob: AYGN 220300Z 13008KT 9999 BKN025 31/24 Q1007 RMKS
cycle: 3

Station Type Date Time Source
AYGN TAF UTC NOAA

Error!


Example: see airport list